sensor_id;sensor_type;location;lat;lon;timestamp;P1;durP1;ratioP1;P2;durP2;ratioP2
16689;SDS011;8458;52.220;9.884;2023-02-27T00:00:34;3.03;;;2.50;;
16689;SDS011;8458;52.220;9.884;2023-02-27T00:03:00;2.63;;;2.43;;
16689;SDS011;8458;52.220;9.884;2023-02-27T00:05:27;2.67;;;2.47;;
16689;SDS011;8458;52.220;9.884;2023-02-27T00:07:53;2.67;;;2.47;;
16689;SDS011;8458;52.220;9.884;2023-02-27T00:10:21;2.50;;;2.30;;
16689;SDS011;8458;52.220;9.884;2023-02-27T00:12:47;2.70;;;2.50;;
16689;SDS011;8458;52.220;9.884;2023-02-27T00:15:15;2.50;;;2.30;;
16689;SDS011;8458;52.220;9.884;2023-02-27T00:17:42;2.60;;;2.30;;
16689;SDS011;8458;52.220;9.884;2023-02-27T00:20:10;3.20;;;2.90;;
16689;SDS011;8458;52.220;9.884;2023-02-27T00:22:38;2.70;;;2.50;;
16689;SDS011;8458;52.220;9.884;2023-02-27T00:25:05;2.93;;;2.73;;
16689;SDS011;8458;52.220;9.884;2023-02-27T00:27:34;2.30;;;2.10;;
16689;SDS011;8458;52.220;9.884;2023-02-27T00:30:01;2.83;;;2.60;;
16689;SDS011;8458;52.220;9.884;2023-02-27T00:32:28;2.60;;;2.37;;
16689;SDS011;8458;52.220;9.884;2023-02-27T00:34:54;6.13;;;2.67;;
16689;SDS011;8458;52.220;9.884;2023-02-27T00:37:20;2.83;;;2.63;;
16689;SDS011;8458;52.220;9.884;2023-02-27T00:39:47;2.90;;;2.53;;
16689;SDS011;8458;52.220;9.884;2023-02-27T00:42:14;2.97;;;2.60;;
16689;SDS011;8458;52.220;9.884;2023-02-27T00:44:42;2.90;;;2.70;;
16689;SDS011;8458;52.220;9.884;2023-02-27T00:47:08;2.77;;;2.57;;
16689;SDS011;8458;52.220;9.884;2023-02-27T00:49:35;2.80;;;2.60;;
16689;SDS011;8458;52.220;9.884;2023-02-27T00:52:01;3.70;;;3.03;;
16689;SDS011;8458;52.220;9.884;2023-02-27T00:54:28;2.87;;;2.67;;
16689;SDS011;8458;52.220;9.884;2023-02-27T00:56:55;2.90;;;2.63;;
16689;SDS011;8458;52.220;9.884;2023-02-27T00:59:21;2.97;;;2.67;;
16689;SDS011;8458;52.220;9.884;2023-02-27T01:01:49;3.10;;;2.80;;
16689;SDS011;8458;52.220;9.884;2023-02-27T01:04:15;2.83;;;2.60;;
16689;SDS011;8458;52.220;9.884;2023-02-27T01:06:42;2.93;;;2.73;;
16689;SDS011;8458;52.220;9.884;2023-02-27T01:09:08;6.00;;;2.93;;
16689;SDS011;8458;52.220;9.884;2023-02-27T01:11:35;2.40;;;2.20;;
16689;SDS011;8458;52.220;9.884;2023-02-27T01:14:02;2.77;;;2.57;;
16689;SDS011;8458;52.220;9.884;2023-02-27T01:16:28;2.57;;;2.23;;
16689;SDS011;8458;52.220;9.884;2023-02-27T01:18:57;3.07;;;2.37;;
16689;SDS011;8458;52.220;9.884;2023-02-27T01:21:23;2.77;;;2.53;;
16689;SDS011;8458;52.220;9.884;2023-02-27T01:23:51;2.33;;;1.90;;
16689;SDS011;8458;52.220;9.884;2023-02-27T01:26:17;2.27;;;2.07;;
16689;SDS011;8458;52.220;9.884;2023-02-27T01:28:43;2.70;;;2.20;;
16689;SDS011;8458;52.220;9.884;2023-02-27T01:31:10;2.70;;;2.50;;
16689;SDS011;8458;52.220;9.884;2023-02-27T01:33:36;2.80;;;2.50;;
16689;SDS011;8458;52.220;9.884;2023-02-27T01:36:04;2.70;;;2.50;;
16689;SDS011;8458;52.220;9.884;2023-02-27T01:38:31;2.83;;;2.40;;
16689;SDS011;8458;52.220;9.884;2023-02-27T01:40:58;3.30;;;2.43;;
16689;SDS011;8458;52.220;9.884;2023-02-27T01:43:25;3.17;;;2.97;;
16689;SDS011;8458;52.220;9.884;2023-02-27T01:45:51;3.00;;;2.70;;
16689;SDS011;8458;52.220;9.884;2023-02-27T01:48:19;2.47;;;2.20;;
16689;SDS011;8458;52.220;9.884;2023-02-27T01:50:49;3.03;;;2.30;;
16689;SDS011;8458;52.220;9.884;2023-02-27T01:53:21;2.23;;;2.03;;
16689;SDS011;8458;52.220;9.884;2023-02-27T01:55:50;2.67;;;2.10;;
16689;SDS011;8458;52.220;9.884;2023-02-27T01:58:19;3.53;;;2.37;;
16689;SDS011;8458;52.220;9.884;2023-02-27T02:00:47;3.67;;;2.57;;
16689;SDS011;8458;52.220;9.884;2023-02-27T02:03:19;2.50;;;2.30;;
16689;SDS011;8458;52.220;9.884;2023-02-27T02:05:50;2.80;;;2.43;;
16689;SDS011;8458;52.220;9.884;2023-02-27T02:08:19;2.43;;;2.00;;
16689;SDS011;8458;52.220;9.884;2023-02-27T02:10:49;3.43;;;2.90;;
16689;SDS011;8458;52.220;9.884;2023-02-27T02:13:17;3.23;;;2.30;;
16689;SDS011;8458;52.220;9.884;2023-02-27T02:15:46;2.87;;;2.30;;
16689;SDS011;8458;52.220;9.884;2023-02-27T02:18:18;2.67;;;2.47;;
16689;SDS011;8458;52.220;9.884;2023-02-27T02:24:10;2.83;;;2.10;;
16689;SDS011;8458;52.220;9.884;2023-02-27T02:26:50;2.77;;;2.40;;
16689;SDS011;8458;52.220;9.884;2023-02-27T02:32:55;2.60;;;2.40;;
16689;SDS011;8458;52.220;9.884;2023-02-27T02:35:48;2.57;;;2.37;;
16689;SDS011;8458;52.220;9.884;2023-02-27T02:38:41;2.43;;;2.23;;
16689;SDS011;8458;52.220;9.884;2023-02-27T02:41:19;2.60;;;2.40;;
16689;SDS011;8458;52.220;9.884;2023-02-27T02:43:58;2.50;;;2.30;;
16689;SDS011;8458;52.220;9.884;2023-02-27T02:46:31;2.80;;;2.13;;
16689;SDS011;8458;52.220;9.884;2023-02-27T02:49:07;3.03;;;2.53;;
16689;SDS011;8458;52.220;9.884;2023-02-27T02:51:43;2.57;;;2.37;;
16689;SDS011;8458;52.220;9.884;2023-02-27T02:54:18;2.27;;;1.97;;
16689;SDS011;8458;52.220;9.884;2023-02-27T02:56:53;2.53;;;2.33;;
16689;SDS011;8458;52.220;9.884;2023-02-27T02:59:28;3.40;;;2.50;;
16689;SDS011;8458;52.220;9.884;2023-02-27T03:01:59;2.87;;;2.40;;
16689;SDS011;8458;52.220;9.884;2023-02-27T03:04:30;2.70;;;2.23;;
16689;SDS011;8458;52.220;9.884;2023-02-27T03:07:02;2.83;;;2.30;;
16689;SDS011;8458;52.220;9.884;2023-02-27T03:09:36;2.60;;;1.90;;
16689;SDS011;8458;52.220;9.884;2023-02-27T03:12:07;3.00;;;2.50;;
16689;SDS011;8458;52.220;9.884;2023-02-27T03:14:39;2.50;;;2.20;;
16689;SDS011;8458;52.220;9.884;2023-02-27T03:17:14;2.50;;;2.30;;
16689;SDS011;8458;52.220;9.884;2023-02-27T03:19:47;2.40;;;2.20;;
16689;SDS011;8458;52.220;9.884;2023-02-27T03:22:19;2.93;;;2.60;;
16689;SDS011;8458;52.220;9.884;2023-02-27T03:24:50;2.83;;;2.47;;
16689;SDS011;8458;52.220;9.884;2023-02-27T03:27:19;2.50;;;2.30;;
16689;SDS011;8458;52.220;9.884;2023-02-27T03:29:48;2.83;;;2.63;;
16689;SDS011;8458;52.220;9.884;2023-02-27T03:32:20;2.53;;;2.17;;
16689;SDS011;8458;52.220;9.884;2023-02-27T03:34:49;2.67;;;2.43;;
16689;SDS011;8458;52.220;9.884;2023-02-27T03:37:19;2.60;;;2.40;;
16689;SDS011;8458;52.220;9.884;2023-02-27T03:39:56;2.80;;;2.47;;
16689;SDS011;8458;52.220;9.884;2023-02-27T03:42:30;2.33;;;2.13;;
16689;SDS011;8458;52.220;9.884;2023-02-27T03:45:02;2.80;;;2.40;;
16689;SDS011;8458;52.220;9.884;2023-02-27T03:47:33;2.50;;;2.30;;
16689;SDS011;8458;52.220;9.884;2023-02-27T03:50:00;2.80;;;2.43;;
16689;SDS011;8458;52.220;9.884;2023-02-27T03:52:27;2.43;;;2.23;;
16689;SDS011;8458;52.220;9.884;2023-02-27T03:54:57;3.97;;;2.70;;
16689;SDS011;8458;52.220;9.884;2023-02-27T03:57:27;2.23;;;2.10;;
16689;SDS011;8458;52.220;9.884;2023-02-27T03:59:55;2.70;;;2.43;;
16689;SDS011;8458;52.220;9.884;2023-02-27T04:02:22;3.27;;;2.97;;
16689;SDS011;8458;52.220;9.884;2023-02-27T04:04:49;2.90;;;2.57;;
16689;SDS011;8458;52.220;9.884;2023-02-27T04:07:19;4.03;;;2.47;;
16689;SDS011;8458;52.220;9.884;2023-02-27T04:10:01;2.90;;;2.60;;
16689;SDS011;8458;52.220;9.884;2023-02-27T04:12:46;2.80;;;2.60;;
16689;SDS011;8458;52.220;9.884;2023-02-27T04:15:37;2.73;;;2.43;;
16689;SDS011;8458;52.220;9.884;2023-02-27T04:18:18;2.93;;;2.60;;
16689;SDS011;8458;52.220;9.884;2023-02-27T04:20:55;2.57;;;2.37;;
16689;SDS011;8458;52.220;9.884;2023-02-27T04:23:27;3.37;;;2.80;;
16689;SDS011;8458;52.220;9.884;2023-02-27T04:26:06;3.60;;;2.23;;
16689;SDS011;8458;52.220;9.884;2023-02-27T04:28:42;3.47;;;2.30;;
16689;SDS011;8458;52.220;9.884;2023-02-27T04:31:15;2.57;;;2.30;;
16689;SDS011;8458;52.220;9.884;2023-02-27T04:33:45;2.80;;;2.50;;
16689;SDS011;8458;52.220;9.884;2023-02-27T04:36:17;3.43;;;2.60;;
16689;SDS011;8458;52.220;9.884;2023-02-27T04:38:52;2.80;;;2.50;;
16689;SDS011;8458;52.220;9.884;2023-02-27T04:41:25;2.43;;;2.23;;
16689;SDS011;8458;52.220;9.884;2023-02-27T04:43:55;3.90;;;2.50;;
16689;SDS011;8458;52.220;9.884;2023-02-27T04:46:24;2.53;;;2.33;;
16689;SDS011;8458;52.220;9.884;2023-02-27T04:48:53;2.90;;;2.70;;
16689;SDS011;8458;52.220;9.884;2023-02-27T04:51:25;3.07;;;2.73;;
16689;SDS011;8458;52.220;9.884;2023-02-27T04:53:57;4.30;;;2.80;;
16689;SDS011;8458;52.220;9.884;2023-02-27T04:56:29;3.30;;;2.53;;
16689;SDS011;8458;52.220;9.884;2023-02-27T04:59:01;2.27;;;2.13;;
16689;SDS011;8458;52.220;9.884;2023-02-27T05:01:33;2.47;;;2.27;;
16689;SDS011;8458;52.220;9.884;2023-02-27T05:04:04;2.67;;;2.47;;
16689;SDS011;8458;52.220;9.884;2023-02-27T05:06:35;3.17;;;2.30;;
16689;SDS011;8458;52.220;9.884;2023-02-27T05:09:06;2.60;;;2.40;;
16689;SDS011;8458;52.220;9.884;2023-02-27T05:11:40;3.27;;;2.77;;
16689;SDS011;8458;52.220;9.884;2023-02-27T05:14:11;2.60;;;2.40;;
16689;SDS011;8458;52.220;9.884;2023-02-27T05:16:43;7.47;;;2.67;;
16689;SDS011;8458;52.220;9.884;2023-02-27T05:19:16;3.10;;;2.70;;
16689;SDS011;8458;52.220;9.884;2023-02-27T05:21:45;2.50;;;2.30;;
16689;SDS011;8458;52.220;9.884;2023-02-27T05:24:20;3.20;;;2.40;;
16689;SDS011;8458;52.220;9.884;2023-02-27T05:29:46;3.10;;;2.80;;
16689;SDS011;8458;52.220;9.884;2023-02-27T05:32:19;3.40;;;2.20;;
16689;SDS011;8458;52.220;9.884;2023-02-27T05:34:53;2.60;;;2.23;;
16689;SDS011;8458;52.220;9.884;2023-02-27T05:37:27;3.73;;;2.60;;
16689;SDS011;8458;52.220;9.884;2023-02-27T05:39:57;2.50;;;2.30;;
16689;SDS011;8458;52.220;9.884;2023-02-27T05:42:31;2.87;;;2.40;;
16689;SDS011;8458;52.220;9.884;2023-02-27T05:45:03;3.20;;;2.30;;
16689;SDS011;8458;52.220;9.884;2023-02-27T05:47:35;2.93;;;2.30;;
16689;SDS011;8458;52.220;9.884;2023-02-27T05:50:06;2.70;;;2.50;;
16689;SDS011;8458;52.220;9.884;2023-02-27T05:52:35;4.30;;;2.97;;
16689;SDS011;8458;52.220;9.884;2023-02-27T05:55:05;2.80;;;2.60;;
16689;SDS011;8458;52.220;9.884;2023-02-27T05:57:39;4.90;;;3.07;;
16689;SDS011;8458;52.220;9.884;2023-02-27T06:00:09;2.60;;;2.40;;
16689;SDS011;8458;52.220;9.884;2023-02-27T06:02:42;3.30;;;2.50;;
16689;SDS011;8458;52.220;9.884;2023-02-27T06:05:10;3.47;;;3.27;;
16689;SDS011;8458;52.220;9.884;2023-02-27T06:07:38;3.20;;;2.90;;
16689;SDS011;8458;52.220;9.884;2023-02-27T06:10:06;3.17;;;2.97;;
16689;SDS011;8458;52.220;9.884;2023-02-27T06:12:33;3.50;;;3.20;;
16689;SDS011;8458;52.220;9.884;2023-02-27T06:15:01;2.90;;;2.70;;
16689;SDS011;8458;52.220;9.884;2023-02-27T06:17:27;3.07;;;2.87;;
16689;SDS011;8458;52.220;9.884;2023-02-27T06:19:54;2.70;;;2.50;;
16689;SDS011;8458;52.220;9.884;2023-02-27T06:22:20;3.80;;;3.50;;
16689;SDS011;8458;52.220;9.884;2023-02-27T06:24:47;3.77;;;3.47;;
16689;SDS011;8458;52.220;9.884;2023-02-27T06:27:14;4.30;;;4.03;;
16689;SDS011;8458;52.220;9.884;2023-02-27T06:29:40;3.83;;;3.60;;
16689;SDS011;8458;52.220;9.884;2023-02-27T06:32:08;3.67;;;3.37;;
16689;SDS011;8458;52.220;9.884;2023-02-27T06:34:34;3.23;;;3.00;;
16689;SDS011;8458;52.220;9.884;2023-02-27T06:37:01;3.30;;;2.97;;
16689;SDS011;8458;52.220;9.884;2023-02-27T06:39:27;4.00;;;3.33;;
16689;SDS011;8458;52.220;9.884;2023-02-27T06:41:54;3.43;;;3.20;;
16689;SDS011;8458;52.220;9.884;2023-02-27T06:44:20;3.40;;;3.10;;
16689;SDS011;8458;52.220;9.884;2023-02-27T06:46:47;3.43;;;3.13;;
16689;SDS011;8458;52.220;9.884;2023-02-27T06:49:15;3.43;;;3.23;;
16689;SDS011;8458;52.220;9.884;2023-02-27T06:51:41;4.10;;;3.70;;
16689;SDS011;8458;52.220;9.884;2023-02-27T06:54:08;3.30;;;3.00;;
16689;SDS011;8458;52.220;9.884;2023-02-27T06:56:34;3.40;;;3.10;;
16689;SDS011;8458;52.220;9.884;2023-02-27T06:59:01;2.97;;;2.60;;
16689;SDS011;8458;52.220;9.884;2023-02-27T07:01:27;3.23;;;3.03;;
16689;SDS011;8458;52.220;9.884;2023-02-27T07:03:54;3.07;;;2.87;;
16689;SDS011;8458;52.220;9.884;2023-02-27T07:06:21;3.57;;;3.27;;
16689;SDS011;8458;52.220;9.884;2023-02-27T07:08:48;3.83;;;3.47;;
16689;SDS011;8458;52.220;9.884;2023-02-27T07:11:14;5.23;;;3.13;;
16689;SDS011;8458;52.220;9.884;2023-02-27T07:13:41;8.07;;;4.40;;
16689;SDS011;8458;52.220;9.884;2023-02-27T07:16:07;3.60;;;3.33;;
16689;SDS011;8458;52.220;9.884;2023-02-27T07:18:34;3.40;;;3.10;;
16689;SDS011;8458;52.220;9.884;2023-02-27T07:21:00;3.37;;;2.97;;
16689;SDS011;8458;52.220;9.884;2023-02-27T07:23:28;3.57;;;3.27;;
16689;SDS011;8458;52.220;9.884;2023-02-27T07:25:55;3.10;;;2.90;;
16689;SDS011;8458;52.220;9.884;2023-02-27T07:28:21;5.40;;;3.77;;
16689;SDS011;8458;52.220;9.884;2023-02-27T07:30:48;4.00;;;3.60;;
16689;SDS011;8458;52.220;9.884;2023-02-27T07:33:14;3.90;;;3.50;;
16689;SDS011;8458;52.220;9.884;2023-02-27T07:35:40;4.90;;;4.07;;
16689;SDS011;8458;52.220;9.884;2023-02-27T07:38:07;4.80;;;4.20;;
16689;SDS011;8458;52.220;9.884;2023-02-27T07:40:35;4.80;;;4.00;;
16689;SDS011;8458;52.220;9.884;2023-02-27T07:43:01;4.80;;;3.83;;
16689;SDS011;8458;52.220;9.884;2023-02-27T07:45:28;4.53;;;3.47;;
16689;SDS011;8458;52.220;9.884;2023-02-27T07:47:54;4.17;;;3.63;;
16689;SDS011;8458;52.220;9.884;2023-02-27T07:50:21;3.97;;;3.67;;
16689;SDS011;8458;52.220;9.884;2023-02-27T07:52:47;4.20;;;3.90;;
16689;SDS011;8458;52.220;9.884;2023-02-27T07:55:13;4.03;;;3.60;;
16689;SDS011;8458;52.220;9.884;2023-02-27T07:57:41;3.20;;;2.93;;
16689;SDS011;8458;52.220;9.884;2023-02-27T08:00:10;3.67;;;3.37;;
16689;SDS011;8458;52.220;9.884;2023-02-27T08:02:37;3.40;;;3.10;;
16689;SDS011;8458;52.220;9.884;2023-02-27T08:05:05;4.33;;;3.93;;
16689;SDS011;8458;52.220;9.884;2023-02-27T08:07:32;3.77;;;3.47;;
16689;SDS011;8458;52.220;9.884;2023-02-27T08:09:58;4.07;;;3.40;;
16689;SDS011;8458;52.220;9.884;2023-02-27T08:12:25;3.47;;;3.20;;
16689;SDS011;8458;52.220;9.884;2023-02-27T08:14:52;4.50;;;3.77;;
16689;SDS011;8458;52.220;9.884;2023-02-27T08:17:19;3.70;;;3.40;;
16689;SDS011;8458;52.220;9.884;2023-02-27T08:19:45;3.50;;;3.30;;
16689;SDS011;8458;52.220;9.884;2023-02-27T08:22:12;3.60;;;3.30;;
16689;SDS011;8458;52.220;9.884;2023-02-27T08:24:38;4.07;;;3.77;;
16689;SDS011;8458;52.220;9.884;2023-02-27T08:27:05;5.50;;;4.60;;
16689;SDS011;8458;52.220;9.884;2023-02-27T08:29:33;4.50;;;4.10;;
16689;SDS011;8458;52.220;9.884;2023-02-27T08:32:01;4.50;;;3.20;;
16689;SDS011;8458;52.220;9.884;2023-02-27T08:34:28;3.90;;;3.23;;
16689;SDS011;8458;52.220;9.884;2023-02-27T08:36:55;4.17;;;3.40;;
16689;SDS011;8458;52.220;9.884;2023-02-27T08:39:21;4.90;;;3.77;;
16689;SDS011;8458;52.220;9.884;2023-02-27T08:41:49;5.23;;;3.83;;
16689;SDS011;8458;52.220;9.884;2023-02-27T08:44:16;5.03;;;3.50;;
16689;SDS011;8458;52.220;9.884;2023-02-27T08:46:43;4.00;;;3.70;;
16689;SDS011;8458;52.220;9.884;2023-02-27T08:49:10;3.77;;;3.30;;
16689;SDS011;8458;52.220;9.884;2023-02-27T08:51:37;4.77;;;3.50;;
16689;SDS011;8458;52.220;9.884;2023-02-27T08:54:04;4.40;;;4.00;;
16689;SDS011;8458;52.220;9.884;2023-02-27T08:56:30;4.50;;;4.10;;
16689;SDS011;8458;52.220;9.884;2023-02-27T08:58:58;3.73;;;3.43;;
16689;SDS011;8458;52.220;9.884;2023-02-27T09:01:25;5.93;;;3.80;;
16689;SDS011;8458;52.220;9.884;2023-02-27T09:03:58;4.40;;;4.00;;
16689;SDS011;8458;52.220;9.884;2023-02-27T09:06:26;4.67;;;3.70;;
16689;SDS011;8458;52.220;9.884;2023-02-27T09:08:53;4.43;;;3.97;;
16689;SDS011;8458;52.220;9.884;2023-02-27T09:11:20;5.33;;;4.03;;
16689;SDS011;8458;52.220;9.884;2023-02-27T09:13:47;3.67;;;3.37;;
16689;SDS011;8458;52.220;9.884;2023-02-27T09:16:13;4.60;;;3.23;;
16689;SDS011;8458;52.220;9.884;2023-02-27T09:18:40;3.93;;;3.53;;
16689;SDS011;8458;52.220;9.884;2023-02-27T09:21:06;4.70;;;3.43;;
16689;SDS011;8458;52.220;9.884;2023-02-27T09:23:34;3.70;;;3.33;;
16689;SDS011;8458;52.220;9.884;2023-02-27T09:26:00;5.33;;;3.93;;
16689;SDS011;8458;52.220;9.884;2023-02-27T09:28:27;3.47;;;3.10;;
16689;SDS011;8458;52.220;9.884;2023-02-27T09:30:53;5.27;;;3.60;;
16689;SDS011;8458;52.220;9.884;2023-02-27T09:33:20;4.20;;;3.80;;
16689;SDS011;8458;52.220;9.884;2023-02-27T09:35:46;4.40;;;3.77;;
16689;SDS011;8458;52.220;9.884;2023-02-27T09:38:12;3.97;;;3.30;;
16689;SDS011;8458;52.220;9.884;2023-02-27T09:40:40;3.93;;;3.43;;
16689;SDS011;8458;52.220;9.884;2023-02-27T09:43:10;3.90;;;3.50;;
16689;SDS011;8458;52.220;9.884;2023-02-27T09:45:44;4.27;;;2.93;;
16689;SDS011;8458;52.220;9.884;2023-02-27T09:48:18;3.83;;;3.43;;
16689;SDS011;8458;52.220;9.884;2023-02-27T09:50:51;3.47;;;3.17;;
16689;SDS011;8458;52.220;9.884;2023-02-27T09:53:20;3.63;;;3.33;;
16689;SDS011;8458;52.220;9.884;2023-02-27T09:55:52;3.77;;;2.90;;
16689;SDS011;8458;52.220;9.884;2023-02-27T09:58:25;4.30;;;3.30;;
16689;SDS011;8458;52.220;9.884;2023-02-27T10:01:01;4.23;;;3.13;;
16689;SDS011;8458;52.220;9.884;2023-02-27T10:03:38;3.70;;;2.73;;
16689;SDS011;8458;52.220;9.884;2023-02-27T10:06:21;3.63;;;3.33;;
16689;SDS011;8458;52.220;9.884;2023-02-27T10:08:54;4.37;;;3.20;;
16689;SDS011;8458;52.220;9.884;2023-02-27T10:11:37;4.40;;;3.10;;
16689;SDS011;8458;52.220;9.884;2023-02-27T10:14:15;4.27;;;3.23;;
16689;SDS011;8458;52.220;9.884;2023-02-27T10:16:53;4.00;;;2.83;;
16689;SDS011;8458;52.220;9.884;2023-02-27T10:19:25;4.00;;;3.30;;
16689;SDS011;8458;52.220;9.884;2023-02-27T10:21:53;4.30;;;3.60;;
16689;SDS011;8458;52.220;9.884;2023-02-27T10:24:24;2.60;;;2.40;;
16689;SDS011;8458;52.220;9.884;2023-02-27T10:26:56;4.33;;;3.30;;
16689;SDS011;8458;52.220;9.884;2023-02-27T10:29:26;4.13;;;2.70;;
16689;SDS011;8458;52.220;9.884;2023-02-27T10:31:55;3.37;;;2.30;;
16689;SDS011;8458;52.220;9.884;2023-02-27T10:34:28;3.87;;;2.60;;
16689;SDS011;8458;52.220;9.884;2023-02-27T10:36:55;4.70;;;4.23;;
16689;SDS011;8458;52.220;9.884;2023-02-27T10:39:25;5.53;;;3.00;;
16689;SDS011;8458;52.220;9.884;2023-02-27T10:41:53;3.63;;;2.90;;
16689;SDS011;8458;52.220;9.884;2023-02-27T10:44:25;3.70;;;2.63;;
16689;SDS011;8458;52.220;9.884;2023-02-27T10:46:52;4.40;;;3.87;;
16689;SDS011;8458;52.220;9.884;2023-02-27T10:49:19;2.87;;;2.50;;
16689;SDS011;8458;52.220;9.884;2023-02-27T10:51:47;7.27;;;5.70;;
16689;SDS011;8458;52.220;9.884;2023-02-27T10:54:31;3.90;;;3.50;;
16689;SDS011;8458;52.220;9.884;2023-02-27T10:56:58;3.07;;;1.73;;
16689;SDS011;8458;52.220;9.884;2023-02-27T10:59:30;1.87;;;1.20;;
16689;SDS011;8458;52.220;9.884;2023-02-27T11:01:59;2.87;;;1.23;;
16689;SDS011;8458;52.220;9.884;2023-02-27T11:04:30;1.90;;;1.30;;
16689;SDS011;8458;52.220;9.884;2023-02-27T11:06:59;2.60;;;1.27;;
16689;SDS011;8458;52.220;9.884;2023-02-27T11:09:29;2.70;;;1.40;;
16689;SDS011;8458;52.220;9.884;2023-02-27T11:12:08;2.30;;;2.10;;
16689;SDS011;8458;52.220;9.884;2023-02-27T11:14:46;2.37;;;1.10;;
16689;SDS011;8458;52.220;9.884;2023-02-27T11:17:19;2.20;;;1.80;;
16689;SDS011;8458;52.220;9.884;2023-02-27T11:19:48;3.20;;;1.07;;
16689;SDS011;8458;52.220;9.884;2023-02-27T11:22:15;2.00;;;1.10;;
16689;SDS011;8458;52.220;9.884;2023-02-27T11:24:44;2.80;;;1.37;;
16689;SDS011;8458;52.220;9.884;2023-02-27T11:27:17;3.17;;;1.47;;
16689;SDS011;8458;52.220;9.884;2023-02-27T11:29:55;4.80;;;2.93;;
16689;SDS011;8458;52.220;9.884;2023-02-27T11:32:23;1.77;;;1.30;;
16689;SDS011;8458;52.220;9.884;2023-02-27T11:34:52;1.73;;;1.30;;
16689;SDS011;8458;52.220;9.884;2023-02-27T11:37:20;2.33;;;1.67;;
16689;SDS011;8458;52.220;9.884;2023-02-27T11:39:50;3.33;;;2.80;;
16689;SDS011;8458;52.220;9.884;2023-02-27T11:42:22;9.77;;;9.07;;
16689;SDS011;8458;52.220;9.884;2023-02-27T11:44:53;2.80;;;1.97;;
16689;SDS011;8458;52.220;9.884;2023-02-27T11:47:24;6.87;;;6.37;;
16689;SDS011;8458;52.220;9.884;2023-02-27T11:52:49;2.17;;;1.60;;
16689;SDS011;8458;52.220;9.884;2023-02-27T11:55:19;2.30;;;1.57;;
16689;SDS011;8458;52.220;9.884;2023-02-27T11:57:51;2.90;;;1.60;;
16689;SDS011;8458;52.220;9.884;2023-02-27T12:00:25;4.13;;;1.97;;
16689;SDS011;8458;52.220;9.884;2023-02-27T12:02:57;2.23;;;1.50;;
16689;SDS011;8458;52.220;9.884;2023-02-27T12:05:30;2.87;;;1.40;;
16689;SDS011;8458;52.220;9.884;2023-02-27T12:08:01;3.33;;;1.57;;
16689;SDS011;8458;52.220;9.884;2023-02-27T12:10:33;2.00;;;1.47;;
16689;SDS011;8458;52.220;9.884;2023-02-27T12:13:05;1.93;;;1.70;;
16689;SDS011;8458;52.220;9.884;2023-02-27T12:15:43;2.17;;;1.70;;
16689;SDS011;8458;52.220;9.884;2023-02-27T12:18:13;2.27;;;1.67;;
16689;SDS011;8458;52.220;9.884;2023-02-27T12:20:47;2.37;;;1.80;;
16689;SDS011;8458;52.220;9.884;2023-02-27T12:23:20;1.83;;;1.43;;
16689;SDS011;8458;52.220;9.884;2023-02-27T12:25:52;2.37;;;1.40;;
16689;SDS011;8458;52.220;9.884;2023-02-27T12:28:28;1.97;;;1.60;;
16689;SDS011;8458;52.220;9.884;2023-02-27T12:31:05;1.93;;;1.43;;
16689;SDS011;8458;52.220;9.884;2023-02-27T12:33:40;3.17;;;1.20;;
16689;SDS011;8458;52.220;9.884;2023-02-27T12:36:10;2.40;;;1.47;;
16689;SDS011;8458;52.220;9.884;2023-02-27T12:38:38;1.97;;;1.10;;
16689;SDS011;8458;52.220;9.884;2023-02-27T12:41:10;1.63;;;1.50;;
16689;SDS011;8458;52.220;9.884;2023-02-27T12:43:52;2.47;;;1.30;;
16689;SDS011;8458;52.220;9.884;2023-02-27T12:46:34;2.33;;;1.17;;
16689;SDS011;8458;52.220;9.884;2023-02-27T12:49:11;1.50;;;1.13;;
16689;SDS011;8458;52.220;9.884;2023-02-27T12:51:51;1.57;;;1.33;;
16689;SDS011;8458;52.220;9.884;2023-02-27T12:54:30;1.73;;;1.20;;
16689;SDS011;8458;52.220;9.884;2023-02-27T12:57:12;3.60;;;1.43;;
16689;SDS011;8458;52.220;9.884;2023-02-27T12:59:56;1.53;;;1.00;;
16689;SDS011;8458;52.220;9.884;2023-02-27T13:02:54;1.97;;;1.10;;
16689;SDS011;8458;52.220;9.884;2023-02-27T13:05:35;1.80;;;0.90;;
16689;SDS011;8458;52.220;9.884;2023-02-27T13:11:03;3.10;;;1.50;;
16689;SDS011;8458;52.220;9.884;2023-02-27T13:13:39;2.23;;;1.10;;
16689;SDS011;8458;52.220;9.884;2023-02-27T13:16:11;2.80;;;1.53;;
16689;SDS011;8458;52.220;9.884;2023-02-27T13:18:44;2.77;;;1.60;;
16689;SDS011;8458;52.220;9.884;2023-02-27T13:21:18;2.90;;;1.90;;
16689;SDS011;8458;52.220;9.884;2023-02-27T13:23:53;3.60;;;1.60;;
16689;SDS011;8458;52.220;9.884;2023-02-27T13:26:29;1.53;;;1.20;;
16689;SDS011;8458;52.220;9.884;2023-02-27T13:28:59;2.63;;;1.50;;
16689;SDS011;8458;52.220;9.884;2023-02-27T13:31:29;2.20;;;1.13;;
16689;SDS011;8458;52.220;9.884;2023-02-27T13:34:12;1.73;;;1.00;;
16689;SDS011;8458;52.220;9.884;2023-02-27T13:36:43;1.97;;;1.30;;
16689;SDS011;8458;52.220;9.884;2023-02-27T13:42:08;2.27;;;1.17;;
16689;SDS011;8458;52.220;9.884;2023-02-27T13:51:10;2.40;;;1.23;;
16689;SDS011;8458;52.220;9.884;2023-02-27T13:54:30;2.43;;;1.40;;
16689;SDS011;8458;52.220;9.884;2023-02-27T13:57:08;3.23;;;1.13;;
16689;SDS011;8458;52.220;9.884;2023-02-27T13:59:50;1.73;;;0.90;;
16689;SDS011;8458;52.220;9.884;2023-02-27T14:05:10;1.30;;;0.80;;
16689;SDS011;8458;52.220;9.884;2023-02-27T14:07:48;1.63;;;0.90;;
16689;SDS011;8458;52.220;9.884;2023-02-27T14:10:19;1.37;;;1.10;;
16689;SDS011;8458;52.220;9.884;2023-02-27T14:12:48;3.10;;;1.20;;
16689;SDS011;8458;52.220;9.884;2023-02-27T14:24:21;1.53;;;1.00;;
16689;SDS011;8458;52.220;9.884;2023-02-27T14:26:52;1.20;;;1.10;;
16689;SDS011;8458;52.220;9.884;2023-02-27T14:29:20;1.47;;;0.90;;
16689;SDS011;8458;52.220;9.884;2023-02-27T14:31:50;3.60;;;1.07;;
16689;SDS011;8458;52.220;9.884;2023-02-27T14:34:20;7.07;;;1.83;;
16689;SDS011;8458;52.220;9.884;2023-02-27T14:36:48;3.07;;;1.07;;
16689;SDS011;8458;52.220;9.884;2023-02-27T14:39:18;2.50;;;1.10;;
16689;SDS011;8458;52.220;9.884;2023-02-27T14:41:49;3.17;;;1.30;;
16689;SDS011;8458;52.220;9.884;2023-02-27T14:44:25;6.03;;;3.47;;
16689;SDS011;8458;52.220;9.884;2023-02-27T14:46:53;10.10;;;2.47;;
16689;SDS011;8458;52.220;9.884;2023-02-27T14:49:23;6.17;;;3.70;;
16689;SDS011;8458;52.220;9.884;2023-02-27T14:51:52;5.20;;;2.00;;
16689;SDS011;8458;52.220;9.884;2023-02-27T14:54:20;10.23;;;1.80;;
16689;SDS011;8458;52.220;9.884;2023-02-27T14:56:52;3.57;;;1.60;;
16689;SDS011;8458;52.220;9.884;2023-02-27T14:59:20;6.50;;;2.23;;
16689;SDS011;8458;52.220;9.884;2023-02-27T15:01:47;7.70;;;1.70;;
16689;SDS011;8458;52.220;9.884;2023-02-27T15:04:14;8.90;;;2.23;;
16689;SDS011;8458;52.220;9.884;2023-02-27T15:06:44;2.50;;;1.70;;
16689;SDS011;8458;52.220;9.884;2023-02-27T15:09:17;5.67;;;1.57;;
16689;SDS011;8458;52.220;9.884;2023-02-27T15:11:48;1.13;;;0.70;;
16689;SDS011;8458;52.220;9.884;2023-02-27T15:14:17;1.60;;;0.80;;
16689;SDS011;8458;52.220;9.884;2023-02-27T15:16:47;2.17;;;0.80;;
16689;SDS011;8458;52.220;9.884;2023-02-27T15:19:18;0.80;;;0.80;;
16689;SDS011;8458;52.220;9.884;2023-02-27T15:21:47;8.07;;;1.30;;
16689;SDS011;8458;52.220;9.884;2023-02-27T15:24:22;6.20;;;1.70;;
16689;SDS011;8458;52.220;9.884;2023-02-27T15:26:52;3.80;;;1.40;;
16689;SDS011;8458;52.220;9.884;2023-02-27T15:29:22;2.77;;;1.20;;
16689;SDS011;8458;52.220;9.884;2023-02-27T15:31:51;2.60;;;0.90;;
16689;SDS011;8458;52.220;9.884;2023-02-27T15:34:18;2.00;;;0.80;;
16689;SDS011;8458;52.220;9.884;2023-02-27T15:36:46;1.40;;;0.70;;
16689;SDS011;8458;52.220;9.884;2023-02-27T15:39:16;1.03;;;0.70;;
16689;SDS011;8458;52.220;9.884;2023-02-27T15:41:45;0.93;;;0.63;;
16689;SDS011;8458;52.220;9.884;2023-02-27T15:44:13;2.20;;;0.90;;
16689;SDS011;8458;52.220;9.884;2023-02-27T15:46:40;3.10;;;0.60;;
16689;SDS011;8458;52.220;9.884;2023-02-27T15:49:09;1.03;;;0.60;;
16689;SDS011;8458;52.220;9.884;2023-02-27T15:51:41;1.53;;;0.80;;
16689;SDS011;8458;52.220;9.884;2023-02-27T15:54:09;2.00;;;0.70;;
16689;SDS011;8458;52.220;9.884;2023-02-27T15:56:36;1.43;;;0.80;;